sensor_id;sensor_type;location;lat;lon;timestamp;P1;durP1;ratioP1;P2;durP2;ratioP2
8086;SDS011;4086;54.412;9.980;2023-05-20T00:01:44;2.70;;;1.80;;
8086;SDS011;4086;54.412;9.980;2023-05-20T00:04:11;2.53;;;1.80;;
8086;SDS011;4086;54.412;9.980;2023-05-20T00:06:37;2.67;;;2.10;;
8086;SDS011;4086;54.412;9.980;2023-05-20T00:09:03;3.67;;;2.30;;
8086;SDS011;4086;54.412;9.980;2023-05-20T00:11:30;3.23;;;2.40;;
8086;SDS011;4086;54.412;9.980;2023-05-20T00:13:56;2.23;;;2.00;;
8086;SDS011;4086;54.412;9.980;2023-05-20T00:16:24;2.40;;;2.10;;
8086;SDS011;4086;54.412;9.980;2023-05-20T00:18:50;1.90;;;1.70;;
8086;SDS011;4086;54.412;9.980;2023-05-20T00:21:16;2.80;;;2.33;;
8086;SDS011;4086;54.412;9.980;2023-05-20T00:23:43;2.30;;;2.10;;
8086;SDS011;4086;54.412;9.980;2023-05-20T00:26:09;1.97;;;1.80;;
8086;SDS011;4086;54.412;9.980;2023-05-20T00:28:35;2.97;;;1.90;;
8086;SDS011;4086;54.412;9.980;2023-05-20T00:31:02;2.30;;;1.73;;
8086;SDS011;4086;54.412;9.980;2023-05-20T00:33:30;2.77;;;2.00;;
8086;SDS011;4086;54.412;9.980;2023-05-20T00:35:56;3.57;;;1.80;;
8086;SDS011;4086;54.412;9.980;2023-05-20T00:38:22;1.87;;;1.77;;
8086;SDS011;4086;54.412;9.980;2023-05-20T00:40:49;5.63;;;2.00;;
8086;SDS011;4086;54.412;9.980;2023-05-20T00:43:15;2.33;;;2.00;;
8086;SDS011;4086;54.412;9.980;2023-05-20T00:45:42;2.63;;;1.83;;
8086;SDS011;4086;54.412;9.980;2023-05-20T00:48:08;3.27;;;2.20;;
8086;SDS011;4086;54.412;9.980;2023-05-20T00:50:36;2.43;;;2.20;;
8086;SDS011;4086;54.412;9.980;2023-05-20T00:53:02;3.00;;;1.93;;
8086;SDS011;4086;54.412;9.980;2023-05-20T00:55:29;4.03;;;1.80;;
8086;SDS011;4086;54.412;9.980;2023-05-20T00:57:56;2.50;;;2.10;;
8086;SDS011;4086;54.412;9.980;2023-05-20T01:00:22;3.03;;;2.47;;
8086;SDS011;4086;54.412;9.980;2023-05-20T01:02:49;2.90;;;2.20;;
8086;SDS011;4086;54.412;9.980;2023-05-20T01:05:15;2.70;;;1.80;;
8086;SDS011;4086;54.412;9.980;2023-05-20T01:07:43;3.77;;;1.90;;
8086;SDS011;4086;54.412;9.980;2023-05-20T01:10:09;3.80;;;2.20;;
8086;SDS011;4086;54.412;9.980;2023-05-20T01:12:37;2.47;;;1.97;;
8086;SDS011;4086;54.412;9.980;2023-05-20T01:15:06;2.73;;;2.17;;
8086;SDS011;4086;54.412;9.980;2023-05-20T01:17:35;2.20;;;2.00;;
8086;SDS011;4086;54.412;9.980;2023-05-20T01:20:03;2.27;;;2.07;;
8086;SDS011;4086;54.412;9.980;2023-05-20T01:22:36;2.57;;;2.00;;
8086;SDS011;4086;54.412;9.980;2023-05-20T01:25:02;2.50;;;2.30;;
8086;SDS011;4086;54.412;9.980;2023-05-20T01:27:29;2.47;;;2.10;;
8086;SDS011;4086;54.412;9.980;2023-05-20T01:29:56;2.83;;;2.03;;
8086;SDS011;4086;54.412;9.980;2023-05-20T01:32:23;2.63;;;2.43;;
8086;SDS011;4086;54.412;9.980;2023-05-20T01:34:53;3.73;;;2.37;;
8086;SDS011;4086;54.412;9.980;2023-05-20T01:37:20;4.00;;;2.30;;
8086;SDS011;4086;54.412;9.980;2023-05-20T01:39:51;2.57;;;2.37;;
8086;SDS011;4086;54.412;9.980;2023-05-20T01:42:18;4.40;;;2.20;;
8086;SDS011;4086;54.412;9.980;2023-05-20T01:44:45;3.50;;;2.40;;
8086;SDS011;4086;54.412;9.980;2023-05-20T01:47:11;2.73;;;2.50;;
8086;SDS011;4086;54.412;9.980;2023-05-20T01:49:38;3.03;;;2.27;;
8086;SDS011;4086;54.412;9.980;2023-05-20T01:52:04;2.87;;;2.23;;
8086;SDS011;4086;54.412;9.980;2023-05-20T01:54:31;2.90;;;2.20;;
8086;SDS011;4086;54.412;9.980;2023-05-20T01:56:59;2.77;;;2.23;;
8086;SDS011;4086;54.412;9.980;2023-05-20T01:59:25;3.03;;;2.27;;
8086;SDS011;4086;54.412;9.980;2023-05-20T02:01:52;3.07;;;2.60;;
8086;SDS011;4086;54.412;9.980;2023-05-20T02:04:18;2.53;;;2.33;;
8086;SDS011;4086;54.412;9.980;2023-05-20T02:06:46;2.40;;;2.20;;
8086;SDS011;4086;54.412;9.980;2023-05-20T02:09:12;4.13;;;2.60;;
8086;SDS011;4086;54.412;9.980;2023-05-20T02:11:39;2.47;;;2.27;;
8086;SDS011;4086;54.412;9.980;2023-05-20T02:14:07;2.67;;;1.93;;
8086;SDS011;4086;54.412;9.980;2023-05-20T02:16:33;2.80;;;2.20;;
8086;SDS011;4086;54.412;9.980;2023-05-20T02:19:00;2.27;;;2.00;;
8086;SDS011;4086;54.412;9.980;2023-05-20T02:21:26;2.60;;;2.00;;
8086;SDS011;4086;54.412;9.980;2023-05-20T02:23:53;4.23;;;2.20;;
8086;SDS011;4086;54.412;9.980;2023-05-20T02:26:19;2.10;;;1.97;;
8086;SDS011;4086;54.412;9.980;2023-05-20T02:28:46;3.53;;;2.10;;
8086;SDS011;4086;54.412;9.980;2023-05-20T02:31:15;2.87;;;1.90;;
8086;SDS011;4086;54.412;9.980;2023-05-20T02:33:42;1.73;;;1.63;;
8086;SDS011;4086;54.412;9.980;2023-05-20T02:36:09;1.97;;;1.70;;
8086;SDS011;4086;54.412;9.980;2023-05-20T02:38:35;2.20;;;2.00;;
8086;SDS011;4086;54.412;9.980;2023-05-20T02:41:01;2.10;;;1.90;;
8086;SDS011;4086;54.412;9.980;2023-05-20T02:43:28;4.20;;;2.00;;
8086;SDS011;4086;54.412;9.980;2023-05-20T02:45:55;3.90;;;2.03;;
8086;SDS011;4086;54.412;9.980;2023-05-20T02:48:22;3.03;;;2.07;;
8086;SDS011;4086;54.412;9.980;2023-05-20T02:50:49;2.70;;;1.70;;
8086;SDS011;4086;54.412;9.980;2023-05-20T02:53:15;4.00;;;1.70;;
8086;SDS011;4086;54.412;9.980;2023-05-20T02:55:42;2.60;;;1.80;;
8086;SDS011;4086;54.412;9.980;2023-05-20T02:58:09;3.27;;;1.70;;
8086;SDS011;4086;54.412;9.980;2023-05-20T03:00:37;2.03;;;1.80;;
8086;SDS011;4086;54.412;9.980;2023-05-20T03:03:04;2.60;;;1.80;;
8086;SDS011;4086;54.412;9.980;2023-05-20T03:05:32;1.97;;;1.87;;
8086;SDS011;4086;54.412;9.980;2023-05-20T03:08:01;2.57;;;1.60;;
8086;SDS011;4086;54.412;9.980;2023-05-20T03:10:28;1.87;;;1.60;;
8086;SDS011;4086;54.412;9.980;2023-05-20T03:12:54;3.23;;;1.93;;
8086;SDS011;4086;54.412;9.980;2023-05-20T03:15:20;2.90;;;1.80;;
8086;SDS011;4086;54.412;9.980;2023-05-20T03:17:47;3.93;;;1.90;;
8086;SDS011;4086;54.412;9.980;2023-05-20T03:20:13;2.60;;;1.83;;
8086;SDS011;4086;54.412;9.980;2023-05-20T03:22:42;2.37;;;2.00;;
8086;SDS011;4086;54.412;9.980;2023-05-20T03:25:08;3.53;;;2.03;;
8086;SDS011;4086;54.412;9.980;2023-05-20T03:27:35;1.67;;;1.53;;
8086;SDS011;4086;54.412;9.980;2023-05-20T03:30:02;1.70;;;1.60;;
8086;SDS011;4086;54.412;9.980;2023-05-20T03:32:28;1.80;;;1.70;;
8086;SDS011;4086;54.412;9.980;2023-05-20T03:34:55;1.90;;;1.77;;
8086;SDS011;4086;54.412;9.980;2023-05-20T03:37:22;1.93;;;1.63;;
8086;SDS011;4086;54.412;9.980;2023-05-20T03:39:49;4.93;;;1.80;;
8086;SDS011;4086;54.412;9.980;2023-05-20T03:42:16;1.77;;;1.57;;
8086;SDS011;4086;54.412;9.980;2023-05-20T03:44:42;1.97;;;1.60;;
8086;SDS011;4086;54.412;9.980;2023-05-20T03:47:08;2.50;;;1.80;;
8086;SDS011;4086;54.412;9.980;2023-05-20T03:49:35;1.60;;;1.50;;
8086;SDS011;4086;54.412;9.980;2023-05-20T03:52:01;1.80;;;1.50;;
8086;SDS011;4086;54.412;9.980;2023-05-20T03:54:28;1.77;;;1.67;;
8086;SDS011;4086;54.412;9.980;2023-05-20T03:56:56;3.10;;;1.80;;
8086;SDS011;4086;54.412;9.980;2023-05-20T03:59:24;1.60;;;1.50;;
8086;SDS011;4086;54.412;9.980;2023-05-20T04:01:51;3.03;;;1.90;;
8086;SDS011;4086;54.412;9.980;2023-05-20T04:04:17;1.93;;;1.60;;
8086;SDS011;4086;54.412;9.980;2023-05-20T04:06:44;3.00;;;1.70;;
8086;SDS011;4086;54.412;9.980;2023-05-20T04:09:10;2.97;;;1.63;;
8086;SDS011;4086;54.412;9.980;2023-05-20T04:11:37;2.20;;;1.70;;
8086;SDS011;4086;54.412;9.980;2023-05-20T04:14:05;2.13;;;1.60;;
8086;SDS011;4086;54.412;9.980;2023-05-20T04:16:31;3.00;;;1.70;;
8086;SDS011;4086;54.412;9.980;2023-05-20T04:18:58;3.00;;;1.70;;
8086;SDS011;4086;54.412;9.980;2023-05-20T04:21:24;1.90;;;1.50;;
8086;SDS011;4086;54.412;9.980;2023-05-20T04:23:51;3.03;;;1.60;;
8086;SDS011;4086;54.412;9.980;2023-05-20T04:26:17;1.67;;;1.57;;
8086;SDS011;4086;54.412;9.980;2023-05-20T04:28:44;1.70;;;1.60;;
8086;SDS011;4086;54.412;9.980;2023-05-20T04:31:14;3.10;;;1.60;;
8086;SDS011;4086;54.412;9.980;2023-05-20T04:33:40;3.07;;;1.60;;
8086;SDS011;4086;54.412;9.980;2023-05-20T04:36:08;1.67;;;1.50;;
8086;SDS011;4086;54.412;9.980;2023-05-20T04:38:36;3.80;;;1.90;;
8086;SDS011;4086;54.412;9.980;2023-05-20T04:41:02;1.90;;;1.40;;
8086;SDS011;4086;54.412;9.980;2023-05-20T04:43:29;2.87;;;1.60;;
8086;SDS011;4086;54.412;9.980;2023-05-20T04:45:55;2.00;;;1.50;;
8086;SDS011;4086;54.412;9.980;2023-05-20T04:48:23;1.93;;;1.53;;
8086;SDS011;4086;54.412;9.980;2023-05-20T04:50:50;2.53;;;1.60;;
8086;SDS011;4086;54.412;9.980;2023-05-20T04:53:18;2.93;;;1.90;;
8086;SDS011;4086;54.412;9.980;2023-05-20T04:55:45;1.70;;;1.60;;
8086;SDS011;4086;54.412;9.980;2023-05-20T04:58:13;3.73;;;1.90;;
8086;SDS011;4086;54.412;9.980;2023-05-20T05:00:41;2.40;;;1.77;;
8086;SDS011;4086;54.412;9.980;2023-05-20T05:03:07;1.87;;;1.43;;
8086;SDS011;4086;54.412;9.980;2023-05-20T05:05:35;2.87;;;1.80;;
8086;SDS011;4086;54.412;9.980;2023-05-20T05:08:02;3.00;;;1.70;;
8086;SDS011;4086;54.412;9.980;2023-05-20T05:10:29;2.57;;;1.80;;
8086;SDS011;4086;54.412;9.980;2023-05-20T05:12:56;2.90;;;1.50;;
8086;SDS011;4086;54.412;9.980;2023-05-20T05:15:23;3.03;;;1.50;;
8086;SDS011;4086;54.412;9.980;2023-05-20T05:17:49;3.27;;;1.30;;
8086;SDS011;4086;54.412;9.980;2023-05-20T05:20:16;1.80;;;1.40;;
8086;SDS011;4086;54.412;9.980;2023-05-20T05:22:44;2.70;;;1.80;;
8086;SDS011;4086;54.412;9.980;2023-05-20T05:25:10;1.97;;;1.53;;
8086;SDS011;4086;54.412;9.980;2023-05-20T05:27:37;1.80;;;1.70;;
8086;SDS011;4086;54.412;9.980;2023-05-20T05:30:05;3.20;;;1.57;;
8086;SDS011;4086;54.412;9.980;2023-05-20T05:32:32;3.10;;;1.50;;
8086;SDS011;4086;54.412;9.980;2023-05-20T05:34:58;1.83;;;1.67;;
8086;SDS011;4086;54.412;9.980;2023-05-20T05:37:25;2.27;;;1.57;;
8086;SDS011;4086;54.412;9.980;2023-05-20T05:39:52;2.37;;;1.30;;
8086;SDS011;4086;54.412;9.980;2023-05-20T05:42:19;2.67;;;1.47;;
8086;SDS011;4086;54.412;9.980;2023-05-20T05:44:45;2.17;;;1.50;;
8086;SDS011;4086;54.412;9.980;2023-05-20T05:47:12;2.60;;;1.90;;
8086;SDS011;4086;54.412;9.980;2023-05-20T05:49:38;2.83;;;1.60;;
8086;SDS011;4086;54.412;9.980;2023-05-20T05:52:05;2.00;;;1.53;;
8086;SDS011;4086;54.412;9.980;2023-05-20T05:54:31;2.50;;;1.70;;
8086;SDS011;4086;54.412;9.980;2023-05-20T05:56:59;3.60;;;1.57;;
8086;SDS011;4086;54.412;9.980;2023-05-20T05:59:26;3.33;;;1.53;;
8086;SDS011;4086;54.412;9.980;2023-05-20T06:01:52;2.80;;;1.77;;
8086;SDS011;4086;54.412;9.980;2023-05-20T06:04:18;2.67;;;1.80;;
8086;SDS011;4086;54.412;9.980;2023-05-20T06:06:46;1.90;;;1.50;;
8086;SDS011;4086;54.412;9.980;2023-05-20T06:09:13;1.53;;;1.40;;
8086;SDS011;4086;54.412;9.980;2023-05-20T06:11:39;2.53;;;1.73;;
8086;SDS011;4086;54.412;9.980;2023-05-20T06:14:09;1.93;;;1.73;;
8086;SDS011;4086;54.412;9.980;2023-05-20T06:16:36;3.23;;;1.60;;
8086;SDS011;4086;54.412;9.980;2023-05-20T06:19:02;2.57;;;1.57;;
8086;SDS011;4086;54.412;9.980;2023-05-20T06:21:29;3.23;;;1.67;;
8086;SDS011;4086;54.412;9.980;2023-05-20T06:23:56;1.90;;;1.60;;
8086;SDS011;4086;54.412;9.980;2023-05-20T06:26:22;2.33;;;1.43;;
8086;SDS011;4086;54.412;9.980;2023-05-20T06:28:49;3.40;;;1.73;;
8086;SDS011;4086;54.412;9.980;2023-05-20T06:31:17;1.97;;;1.80;;
8086;SDS011;4086;54.412;9.980;2023-05-20T06:33:44;3.17;;;1.87;;
8086;SDS011;4086;54.412;9.980;2023-05-20T06:36:10;3.20;;;1.97;;
8086;SDS011;4086;54.412;9.980;2023-05-20T06:38:36;2.90;;;1.80;;
8086;SDS011;4086;54.412;9.980;2023-05-20T06:41:03;5.87;;;2.00;;
8086;SDS011;4086;54.412;9.980;2023-05-20T06:43:29;2.27;;;1.97;;
8086;SDS011;4086;54.412;9.980;2023-05-20T06:45:57;2.30;;;1.90;;
8086;SDS011;4086;54.412;9.980;2023-05-20T06:48:25;3.53;;;2.00;;
8086;SDS011;4086;54.412;9.980;2023-05-20T06:50:51;2.47;;;2.10;;
8086;SDS011;4086;54.412;9.980;2023-05-20T06:53:18;3.80;;;2.03;;
8086;SDS011;4086;54.412;9.980;2023-05-20T06:55:45;3.27;;;1.90;;
8086;SDS011;4086;54.412;9.980;2023-05-20T06:58:12;3.57;;;1.83;;
8086;SDS011;4086;54.412;9.980;2023-05-20T07:00:38;3.43;;;2.10;;
8086;SDS011;4086;54.412;9.980;2023-05-20T07:03:05;2.43;;;2.00;;
8086;SDS011;4086;54.412;9.980;2023-05-20T07:05:33;2.57;;;2.00;;
8086;SDS011;4086;54.412;9.980;2023-05-20T07:07:59;5.63;;;2.37;;
8086;SDS011;4086;54.412;9.980;2023-05-20T07:10:26;2.90;;;2.17;;
8086;SDS011;4086;54.412;9.980;2023-05-20T07:12:52;4.07;;;2.10;;
8086;SDS011;4086;54.412;9.980;2023-05-20T07:15:18;2.77;;;2.00;;
8086;SDS011;4086;54.412;9.980;2023-05-20T07:17:45;2.80;;;1.87;;
8086;SDS011;4086;54.412;9.980;2023-05-20T07:20:11;4.17;;;1.90;;
8086;SDS011;4086;54.412;9.980;2023-05-20T07:22:40;3.00;;;1.83;;
8086;SDS011;4086;54.412;9.980;2023-05-20T07:25:06;3.50;;;2.20;;
8086;SDS011;4086;54.412;9.980;2023-05-20T07:27:33;3.13;;;2.27;;
8086;SDS011;4086;54.412;9.980;2023-05-20T07:29:59;3.30;;;2.00;;
8086;SDS011;4086;54.412;9.980;2023-05-20T07:32:26;3.40;;;2.07;;
8086;SDS011;4086;54.412;9.980;2023-05-20T07:34:52;4.60;;;2.30;;
8086;SDS011;4086;54.412;9.980;2023-05-20T07:37:19;3.73;;;2.30;;
8086;SDS011;4086;54.412;9.980;2023-05-20T07:39:46;2.73;;;2.10;;
8086;SDS011;4086;54.412;9.980;2023-05-20T07:42:13;4.87;;;2.23;;
8086;SDS011;4086;54.412;9.980;2023-05-20T07:44:39;4.87;;;2.50;;
8086;SDS011;4086;54.412;9.980;2023-05-20T07:47:06;2.90;;;1.90;;
8086;SDS011;4086;54.412;9.980;2023-05-20T07:49:32;3.07;;;2.30;;
8086;SDS011;4086;54.412;9.980;2023-05-20T07:51:58;4.63;;;2.53;;
8086;SDS011;4086;54.412;9.980;2023-05-20T07:54:25;3.90;;;2.30;;
8086;SDS011;4086;54.412;9.980;2023-05-20T07:56:53;2.97;;;2.40;;
8086;SDS011;4086;54.412;9.980;2023-05-20T07:59:19;3.13;;;2.30;;
8086;SDS011;4086;54.412;9.980;2023-05-20T08:01:46;4.33;;;2.40;;
8086;SDS011;4086;54.412;9.980;2023-05-20T08:04:12;3.90;;;2.13;;
8086;SDS011;4086;54.412;9.980;2023-05-20T08:06:38;4.63;;;2.47;;
8086;SDS011;4086;54.412;9.980;2023-05-20T08:09:06;3.30;;;2.60;;
8086;SDS011;4086;54.412;9.980;2023-05-20T08:11:32;4.97;;;2.43;;
8086;SDS011;4086;54.412;9.980;2023-05-20T08:14:00;3.07;;;2.10;;
8086;SDS011;4086;54.412;9.980;2023-05-20T08:16:27;4.07;;;2.43;;
8086;SDS011;4086;54.412;9.980;2023-05-20T08:18:53;3.47;;;2.50;;
8086;SDS011;4086;54.412;9.980;2023-05-20T08:21:20;4.40;;;2.80;;
8086;SDS011;4086;54.412;9.980;2023-05-20T08:23:46;4.57;;;2.93;;
8086;SDS011;4086;54.412;9.980;2023-05-20T08:26:13;3.97;;;2.70;;
8086;SDS011;4086;54.412;9.980;2023-05-20T08:28:39;4.07;;;2.70;;
8086;SDS011;4086;54.412;9.980;2023-05-20T08:31:07;4.07;;;2.50;;
8086;SDS011;4086;54.412;9.980;2023-05-20T08:33:33;3.40;;;2.37;;
8086;SDS011;4086;54.412;9.980;2023-05-20T08:36:00;4.37;;;2.33;;
8086;SDS011;4086;54.412;9.980;2023-05-20T08:38:26;3.97;;;2.60;;
8086;SDS011;4086;54.412;9.980;2023-05-20T08:40:54;4.17;;;2.43;;
8086;SDS011;4086;54.412;9.980;2023-05-20T08:43:21;3.50;;;2.20;;
8086;SDS011;4086;54.412;9.980;2023-05-20T08:45:48;3.23;;;2.33;;
8086;SDS011;4086;54.412;9.980;2023-05-20T08:48:17;3.47;;;2.10;;
8086;SDS011;4086;54.412;9.980;2023-05-20T08:50:44;2.93;;;2.23;;
8086;SDS011;4086;54.412;9.980;2023-05-20T08:53:11;3.50;;;2.40;;
8086;SDS011;4086;54.412;9.980;2023-05-20T08:55:41;4.37;;;2.30;;
8086;SDS011;4086;54.412;9.980;2023-05-20T08:58:08;3.10;;;2.00;;
8086;SDS011;4086;54.412;9.980;2023-05-20T09:00:34;2.53;;;1.93;;
8086;SDS011;4086;54.412;9.980;2023-05-20T09:03:01;3.57;;;2.43;;
8086;SDS011;4086;54.412;9.980;2023-05-20T09:05:29;2.73;;;2.20;;
8086;SDS011;4086;54.412;9.980;2023-05-20T09:08:03;4.10;;;1.90;;
8086;SDS011;4086;54.412;9.980;2023-05-20T09:10:30;4.63;;;2.20;;
8086;SDS011;4086;54.412;9.980;2023-05-20T09:12:58;3.97;;;2.07;;
8086;SDS011;4086;54.412;9.980;2023-05-20T09:15:25;3.73;;;2.23;;
8086;SDS011;4086;54.412;9.980;2023-05-20T09:17:51;3.17;;;1.90;;
8086;SDS011;4086;54.412;9.980;2023-05-20T09:20:20;3.70;;;2.00;;
8086;SDS011;4086;54.412;9.980;2023-05-20T09:22:49;5.67;;;2.47;;
8086;SDS011;4086;54.412;9.980;2023-05-20T09:25:17;2.97;;;1.87;;
8086;SDS011;4086;54.412;9.980;2023-05-20T09:27:44;2.83;;;1.80;;
8086;SDS011;4086;54.412;9.980;2023-05-20T09:30:11;2.77;;;2.33;;
8086;SDS011;4086;54.412;9.980;2023-05-20T09:32:38;2.47;;;2.00;;
8086;SDS011;4086;54.412;9.980;2023-05-20T09:35:05;4.90;;;2.30;;
8086;SDS011;4086;54.412;9.980;2023-05-20T09:37:32;2.53;;;2.07;;
8086;SDS011;4086;54.412;9.980;2023-05-20T09:40:02;4.17;;;1.97;;
8086;SDS011;4086;54.412;9.980;2023-05-20T09:42:30;2.20;;;2.00;;
8086;SDS011;4086;54.412;9.980;2023-05-20T09:45:00;4.37;;;2.00;;
8086;SDS011;4086;54.412;9.980;2023-05-20T09:47:28;2.13;;;1.93;;
8086;SDS011;4086;54.412;9.980;2023-05-20T09:49:55;2.67;;;1.80;;
8086;SDS011;4086;54.412;9.980;2023-05-20T09:52:22;3.17;;;1.70;;
8086;SDS011;4086;54.412;9.980;2023-05-20T09:54:49;1.87;;;1.70;;
8086;SDS011;4086;54.412;9.980;2023-05-20T09:57:17;3.53;;;1.93;;
8086;SDS011;4086;54.412;9.980;2023-05-20T09:59:43;1.87;;;1.77;;
8086;SDS011;4086;54.412;9.980;2023-05-20T10:02:11;3.10;;;1.73;;
8086;SDS011;4086;54.412;9.980;2023-05-20T10:04:40;2.00;;;1.80;;
8086;SDS011;4086;54.412;9.980;2023-05-20T10:07:17;2.60;;;1.83;;
8086;SDS011;4086;54.412;9.980;2023-05-20T10:09:56;4.90;;;2.20;;
8086;SDS011;4086;54.412;9.980;2023-05-20T10:12:31;2.60;;;1.80;;
8086;SDS011;4086;54.412;9.980;2023-05-20T10:15:03;2.10;;;1.90;;
8086;SDS011;4086;54.412;9.980;2023-05-20T10:17:38;3.30;;;1.97;;
8086;SDS011;4086;54.412;9.980;2023-05-20T10:20:06;1.90;;;1.80;;
8086;SDS011;4086;54.412;9.980;2023-05-20T10:22:35;1.80;;;1.63;;
8086;SDS011;4086;54.412;9.980;2023-05-20T10:25:03;2.00;;;1.80;;
8086;SDS011;4086;54.412;9.980;2023-05-20T10:27:42;1.57;;;1.47;;
8086;SDS011;4086;54.412;9.980;2023-05-20T10:30:14;1.60;;;1.50;;
8086;SDS011;4086;54.412;9.980;2023-05-20T10:32:47;2.83;;;1.43;;
8086;SDS011;4086;54.412;9.980;2023-05-20T10:35:19;2.63;;;1.63;;
8086;SDS011;4086;54.412;9.980;2023-05-20T10:37:46;3.83;;;1.70;;
8086;SDS011;4086;54.412;9.980;2023-05-20T10:40:13;4.23;;;1.50;;
8086;SDS011;4086;54.412;9.980;2023-05-20T10:42:42;1.97;;;1.50;;
8086;SDS011;4086;54.412;9.980;2023-05-20T10:45:09;1.57;;;1.40;;
8086;SDS011;4086;54.412;9.980;2023-05-20T10:47:35;2.03;;;1.37;;
8086;SDS011;4086;54.412;9.980;2023-05-20T10:50:02;2.70;;;1.50;;
8086;SDS011;4086;54.412;9.980;2023-05-20T10:52:31;1.40;;;1.30;;
8086;SDS011;4086;54.412;9.980;2023-05-20T10:54:59;2.13;;;1.50;;
8086;SDS011;4086;54.412;9.980;2023-05-20T10:57:26;1.73;;;1.43;;
8086;SDS011;4086;54.412;9.980;2023-05-20T10:59:55;2.03;;;1.40;;
8086;SDS011;4086;54.412;9.980;2023-05-20T11:02:22;2.00;;;1.40;;
8086;SDS011;4086;54.412;9.980;2023-05-20T11:04:51;1.93;;;1.70;;
8086;SDS011;4086;54.412;9.980;2023-05-20T11:07:23;2.30;;;1.70;;
8086;SDS011;4086;54.412;9.980;2023-05-20T11:09:50;2.50;;;1.80;;
8086;SDS011;4086;54.412;9.980;2023-05-20T11:12:17;3.00;;;1.77;;
8086;SDS011;4086;54.412;9.980;2023-05-20T11:14:43;1.70;;;1.50;;
8086;SDS011;4086;54.412;9.980;2023-05-20T11:17:11;3.20;;;1.83;;
8086;SDS011;4086;54.412;9.980;2023-05-20T11:19:37;3.10;;;1.90;;
8086;SDS011;4086;54.412;9.980;2023-05-20T11:22:06;2.23;;;2.03;;
8086;SDS011;4086;54.412;9.980;2023-05-20T11:24:32;3.37;;;1.80;;
8086;SDS011;4086;54.412;9.980;2023-05-20T11:26:59;2.80;;;2.10;;
8086;SDS011;4086;54.412;9.980;2023-05-20T11:29:26;2.67;;;1.90;;
8086;SDS011;4086;54.412;9.980;2023-05-20T11:31:56;4.37;;;2.10;;
8086;SDS011;4086;54.412;9.980;2023-05-20T11:34:24;5.30;;;2.03;;
8086;SDS011;4086;54.412;9.980;2023-05-20T11:36:54;3.20;;;2.33;;
8086;SDS011;4086;54.412;9.980;2023-05-20T11:39:21;2.83;;;2.00;;
8086;SDS011;4086;54.412;9.980;2023-05-20T11:41:48;4.20;;;2.17;;
8086;SDS011;4086;54.412;9.980;2023-05-20T11:44:14;3.70;;;2.33;;
8086;SDS011;4086;54.412;9.980;2023-05-20T11:46:41;3.77;;;2.20;;
8086;SDS011;4086;54.412;9.980;2023-05-20T11:49:08;3.87;;;2.50;;
8086;SDS011;4086;54.412;9.980;2023-05-20T11:51:36;5.43;;;2.43;;
8086;SDS011;4086;54.412;9.980;2023-05-20T11:54:03;5.50;;;2.30;;
8086;SDS011;4086;54.412;9.980;2023-05-20T11:56:31;2.80;;;2.10;;
8086;SDS011;4086;54.412;9.980;2023-05-20T11:58:58;2.93;;;2.07;;
8086;SDS011;4086;54.412;9.980;2023-05-20T12:01:25;4.60;;;2.80;;
8086;SDS011;4086;54.412;9.980;2023-05-20T12:03:52;3.20;;;2.53;;
8086;SDS011;4086;54.412;9.980;2023-05-20T12:06:19;6.33;;;2.73;;
8086;SDS011;4086;54.412;9.980;2023-05-20T12:08:47;3.33;;;2.70;;
8086;SDS011;4086;54.412;9.980;2023-05-20T12:11:13;2.63;;;2.30;;
8086;SDS011;4086;54.412;9.980;2023-05-20T12:13:40;3.67;;;2.70;;
8086;SDS011;4086;54.412;9.980;2023-05-20T12:16:06;4.07;;;2.30;;
8086;SDS011;4086;54.412;9.980;2023-05-20T12:18:33;4.00;;;2.83;;
8086;SDS011;4086;54.412;9.980;2023-05-20T12:21:00;3.50;;;2.57;;
8086;SDS011;4086;54.412;9.980;2023-05-20T12:23:27;3.53;;;2.80;;
8086;SDS011;4086;54.412;9.980;2023-05-20T12:25:56;6.57;;;2.60;;
8086;SDS011;4086;54.412;9.980;2023-05-20T12:28:23;5.17;;;2.73;;
8086;SDS011;4086;54.412;9.980;2023-05-20T12:30:51;2.77;;;2.40;;
8086;SDS011;4086;54.412;9.980;2023-05-20T12:33:17;3.93;;;2.87;;
8086;SDS011;4086;54.412;9.980;2023-05-20T12:35:44;3.60;;;3.00;;
8086;SDS011;4086;54.412;9.980;2023-05-20T12:38:11;3.47;;;2.70;;
8086;SDS011;4086;54.412;9.980;2023-05-20T12:40:37;5.93;;;2.90;;
8086;SDS011;4086;54.412;9.980;2023-05-20T12:43:05;3.13;;;2.60;;
8086;SDS011;4086;54.412;9.980;2023-05-20T12:45:31;4.13;;;2.67;;
8086;SDS011;4086;54.412;9.980;2023-05-20T12:47:58;3.60;;;2.43;;
8086;SDS011;4086;54.412;9.980;2023-05-20T12:50:24;5.57;;;2.57;;
8086;SDS011;4086;54.412;9.980;2023-05-20T12:52:51;3.93;;;2.60;;
8086;SDS011;4086;54.412;9.980;2023-05-20T12:55:18;4.20;;;2.30;;
8086;SDS011;4086;54.412;9.980;2023-05-20T12:57:45;4.03;;;2.37;;
8086;SDS011;4086;54.412;9.980;2023-05-20T13:00:14;2.30;;;2.10;;
8086;SDS011;4086;54.412;9.980;2023-05-20T13:02:41;2.07;;;1.87;;
8086;SDS011;4086;54.412;9.980;2023-05-20T13:05:08;2.77;;;2.17;;
8086;SDS011;4086;54.412;9.980;2023-05-20T13:07:35;3.03;;;2.10;;
8086;SDS011;4086;54.412;9.980;2023-05-20T13:10:01;3.33;;;2.27;;
8086;SDS011;4086;54.412;9.980;2023-05-20T13:12:28;4.00;;;2.80;;
8086;SDS011;4086;54.412;9.980;2023-05-20T13:14:55;3.13;;;2.30;;
8086;SDS011;4086;54.412;9.980;2023-05-20T13:17:22;2.70;;;2.10;;
8086;SDS011;4086;54.412;9.980;2023-05-20T13:19:49;4.47;;;2.13;;
8086;SDS011;4086;54.412;9.980;2023-05-20T13:22:15;2.93;;;2.27;;
8086;SDS011;4086;54.412;9.980;2023-05-20T13:24:42;5.18;;;2.25;;
8086;SDS011;4086;54.412;9.980;2023-05-20T13:27:08;2.73;;;2.20;;
8086;SDS011;4086;54.412;9.980;2023-05-20T13:29:36;2.63;;;2.17;;
8086;SDS011;4086;54.412;9.980;2023-05-20T13:32:02;4.97;;;2.50;;
8086;SDS011;4086;54.412;9.980;2023-05-20T13:34:30;2.80;;;2.22;;
8086;SDS011;4086;54.412;9.980;2023-05-20T13:36:56;2.47;;;1.90;;
8086;SDS011;4086;54.412;9.980;2023-05-20T13:39:24;2.50;;;1.90;;
8086;SDS011;4086;54.412;9.980;2023-05-20T13:41:51;2.28;;;1.83;;
8086;SDS011;4086;54.412;9.980;2023-05-20T13:44:18;3.75;;;2.08;;
8086;SDS011;4086;54.412;9.980;2023-05-20T13:46:45;3.83;;;2.00;;
8086;SDS011;4086;54.412;9.980;2023-05-20T13:49:12;5.50;;;2.08;;
8086;SDS011;4086;54.412;9.980;2023-05-20T13:51:39;1.98;;;1.77;;
8086;SDS011;4086;54.412;9.980;2023-05-20T13:54:06;4.23;;;1.83;;
8086;SDS011;4086;54.412;9.980;2023-05-20T13:56:32;2.65;;;1.73;;
8086;SDS011;4086;54.412;9.980;2023-05-20T13:58:59;1.85;;;1.60;;
8086;SDS011;4086;54.412;9.980;2023-05-20T14:01:26;1.98;;;1.67;;
8086;SDS011;4086;54.412;9.980;2023-05-20T14:03:52;1.83;;;1.65;;
8086;SDS011;4086;54.412;9.980;2023-05-20T14:06:19;2.92;;;1.60;;
8086;SDS011;4086;54.412;9.980;2023-05-20T14:08:47;3.72;;;2.10;;
8086;SDS011;4086;54.412;9.980;2023-05-20T14:11:13;2.65;;;1.58;;
8086;SDS011;4086;54.412;9.980;2023-05-20T14:13:40;2.28;;;1.48;;
8086;SDS011;4086;54.412;9.980;2023-05-20T14:16:06;3.25;;;2.00;;
8086;SDS011;4086;54.412;9.980;2023-05-20T14:18:32;2.22;;;1.70;;
8086;SDS011;4086;54.412;9.980;2023-05-20T14:20:59;1.75;;;1.30;;
8086;SDS011;4086;54.412;9.980;2023-05-20T14:23:25;3.95;;;1.58;;
8086;SDS011;4086;54.412;9.980;2023-05-20T14:25:53;2.00;;;1.75;;
8086;SDS011;4086;54.412;9.980;2023-05-20T14:28:19;1.73;;;1.60;;
8086;SDS011;4086;54.412;9.980;2023-05-20T14:30:46;2.70;;;1.83;;
8086;SDS011;4086;54.412;9.980;2023-05-20T14:33:12;2.90;;;1.80;;
8086;SDS011;4086;54.412;9.980;2023-05-20T14:35:38;1.60;;;1.50;;
8086;SDS011;4086;54.412;9.980;2023-05-20T14:38:05;2.83;;;1.80;;
8086;SDS011;4086;54.412;9.980;2023-05-20T14:40:31;1.98;;;1.50;;
8086;SDS011;4086;54.412;9.980;2023-05-20T14:43:00;2.67;;;1.60;;
8086;SDS011;4086;54.412;9.980;2023-05-20T14:45:26;2.78;;;1.42;;
8086;SDS011;4086;54.412;9.980;2023-05-20T14:47:52;1.85;;;1.70;;
8086;SDS011;4086;54.412;9.980;2023-05-20T14:50:19;1.77;;;1.55;;
8086;SDS011;4086;54.412;9.980;2023-05-20T14:52:46;3.60;;;1.70;;
8086;SDS011;4086;54.412;9.980;2023-05-20T14:55:13;3.20;;;2.58;;
8086;SDS011;4086;54.412;9.980;2023-05-20T14:57:39;2.25;;;1.63;;
8086;SDS011;4086;54.412;9.980;2023-05-20T15:00:08;2.03;;;1.30;;
8086;SDS011;4086;54.412;9.980;2023-05-20T15:02:35;3.60;;;1.70;;
8086;SDS011;4086;54.412;9.980;2023-05-20T15:05:01;1.60;;;1.50;;
8086;SDS011;4086;54.412;9.980;2023-05-20T15:07:28;1.65;;;1.50;;
8086;SDS011;4086;54.412;9.980;2023-05-20T15:09:54;2.75;;;1.50;;
8086;SDS011;4086;54.412;9.980;2023-05-20T15:12:21;2.30;;;1.42;;
8086;SDS011;4086;54.412;9.980;2023-05-20T15:14:47;2.33;;;1.50;;